Seven Seas Voyager — C6SW3 — position and weather

sailwx.info

Track history (hours):
 
Tides and Currents Weather Stations Pressure Air Temp Water Temp Dewpoint Dewpoint Depression Visibility Wind Speed Wind Dir Waves Ship Positions

Seven Seas Voyager

Last reported at 2017-Jul-27 00:30 UTC. Time now 2017-Jul-27 00:35 UTC.
Position N 43°03' E 006°54'.

Length 205 m; draft 7 m.

Type: Ship. MMSI: 31151000.

Date/timePositionNaut miles runAvg speedWind from/ knotsBaromVisibWave heightAir tempDewpointWater temp
2017-Jul-27 00:30N 43°03' E 006°54'613.0
2017-Jul-27 00:00N 43°08' E 006°59'713.3
2017-Jul-26 23:30N 43°13' E 007°05'713.4
2017-Jul-26 23:00N 43°18' E 007°10'612.6
2017-Jul-26 22:30N 43°25' E 007°10'612.7
2017-Jul-26 22:00N 43°31' E 007°12'510.2
2017-Jul-26 21:30N 43°36' E 007°10'1 2.3
2017-Jul-26 21:00N 43°36' E 007°08'0 0.1
2017-Jul-26 20:30N 43°36' E 007°08'0 0.0
2017-Jul-26 20:00N 43°36' E 007°08'0 0.0
2017-Jul-26 19:24N 43°36' E 007°08'0 0.1
2017-Jul-26 19:00N 43°36' E 007°08'0 0.0
2017-Jul-26 18:00N 43°36' E 007°08'0 0.0
2017-Jul-26 16:24N 43°36' E 007°08'0 0.0
2017-Jul-26 15:54N 43°36' E 007°08'0 0.0
2017-Jul-26 15:30N 43°36' E 007°08'0 0.0
2017-Jul-26 15:00N 43°36' E 007°08'0 0.0
2017-Jul-26 14:00N 43°36' E 007°08'0 0.0
2017-Jul-26 13:30N 43°36' E 007°08'0 0.0
2017-Jul-26 13:00N 43°36' E 007°08'0 0.0
2017-Jul-26 12:30N 43°36' E 007°08'0 0.0
2017-Jul-26 12:00N 43°36' E 007°08'0 0.0
2017-Jul-26 11:30N 43°36' E 007°08'0 0.0
2017-Jul-26 10:42N 43°36' E 007°08'0 0.0
2017-Jul-26 10:30N 43°36' E 007°08'0 0.0
2017-Jul-26 08:30N 43°36' E 007°08'0 0.1
2017-Jul-26 08:00N 43°36' E 007°08'0 0.1
2017-Jul-26 04:15N 43°36' E 007°09'2 8.1
2017-Jul-26 04:00N 43°36' E 007°12'610.1
2017-Jul-26 03:26N 43°32' E 007°18'4 9.6
2017-Jul-26 03:00N 43°28' E 007°20'5 9.4
2017-Jul-26 02:30N 43°24' E 007°24'4 8.0
2017-Jul-26 02:00N 43°23' E 007°29'4 8.2
2017-Jul-26 01:30N 43°25' E 007°34'4 7.7
2017-Jul-26 01:00N 43°26' E 007°38'4 7.2
2017-Jul-26 00:30N 43°30' E 007°41'4 7.8
2017-Jul-26 00:00N 43°33' E 007°38'4 7.7
2017-Jul-25 23:30N 43°36' E 007°35'4 7.8
2017-Jul-25 23:00N 43°39' E 007°32'4 7.8
2017-Jul-25 22:29N 43°42' E 007°29'3 5.0
2017-Jul-25 21:57N 43°44' E 007°26'0 0.0
2017-Jul-25 21:27N 43°44' E 007°26'0 0.0
2017-Jul-25 20:57N 43°44' E 007°26'0 0.0
2017-Jul-25 20:27N 43°44' E 007°26'0 0.0
2017-Jul-25 19:39N 43°44' E 007°26'0 0.0
2017-Jul-25 19:27N 43°44' E 007°26'0 0.0
2017-Jul-25 18:57N 43°44' E 007°26'0 0.0
2017-Jul-25 18:27N 43°44' E 007°26'0 0.0
2017-Jul-25 17:51N 43°44' E 007°26'0 0.0
2017-Jul-25 17:27N 43°44' E 007°26'0 0.0
2017-Jul-25 16:57N 43°44' E 007°26'0 0.0
2017-Jul-25 16:03N 43°44' E 007°26'0 0.0
2017-Jul-25 15:57N 43°44' E 007°26'0 0.0
2017-Jul-25 15:15N 43°44' E 007°26'0 0.0
2017-Jul-25 14:57N 43°44' E 007°26'0 0.0
2017-Jul-25 13:57N 43°44' E 007°26'0 0.0
2017-Jul-25 13:27N 43°44' E 007°26'0 0.0
2017-Jul-25 12:57N 43°44' E 007°26'0 0.0
2017-Jul-25 12:27N 43°44' E 007°26'0 0.0
2017-Jul-25 11:57N 43°44' E 007°26'0 0.0
2017-Jul-25 10:45N 43°44' E 007°26'0 0.0
2017-Jul-25 10:27N 43°44' E 007°26'0 0.0
2017-Jul-25 09:57N 43°44' E 007°26'0 0.0
2017-Jul-25 07:45N 43°44' E 007°26'0 0.0
2017-Jul-25 07:27N 43°44' E 007°26'0 0.0
2017-Jul-24 21:54N 43°44' E 007°26'1 2.4
2017-Jul-24 21:30N 43°44' E 007°27'714.1
2017-Jul-24 21:00N 43°44' E 007°37'715.2
2017-Jul-24 20:31N 43°44' E 007°47'816.5
2017-Jul-24 20:01N 43°44' E 007°59'917.4
2017-Jul-24 19:30N 43°45' E 008°11'917.3
2017-Jul-24 19:01N 43°48' E 008°22'816.6
2017-Jul-24 18:31N 43°52' E 008°32'816.3
2017-Jul-24 18:01N 43°57' E 008°41'816.2
2017-Jul-24 17:31N 44°02' E 008°50'816.6
2017-Jul-24 17:01N 44°07' E 008°59'816.8
2017-Jul-24 16:30N 44°12' E 009°09'714.7
2017-Jul-24 16:00N 44°18' E 009°15'1 0.5
2017-Jul-24 12:59N 44°19' E 009°14'0 0.0
2017-Jul-24 12:29N 44°19' E 009°14'0 0.0
2017-Jul-24 11:59N 44°19' E 009°14'0 0.0
2017-Jul-24 11:29N 44°19' E 009°14'0 0.0
2017-Jul-24 10:59N 44°19' E 009°14'0 0.0
2017-Jul-24 10:29N 44°19' E 009°14'0 0.0
2017-Jul-24 09:59N 44°19' E 009°14'0 0.0
2017-Jul-24 09:29N 44°19' E 009°14'0 0.0
2017-Jul-24 08:59N 44°19' E 009°14'0 0.0
2017-Jul-24 08:23N 44°19' E 009°14'0 0.0
2017-Jul-24 07:35N 44°19' E 009°14'0 0.0
2017-Jul-24 07:23N 44°19' E 009°14'0 0.0
2017-Jul-24 06:53N 44°19' E 009°14'0 0.1
2017-Jul-24 06:29N 44°19' E 009°14'1 1.4
2017-Jul-24 06:00N 44°18' E 009°14'611.8
2017-Jul-24 05:30N 44°12' E 009°15'714.5
2017-Jul-24 05:00N 44°05' E 009°13'815.8
2017-Jul-24 04:30N 43°57' E 009°15'816.9
2017-Jul-24 04:00N 43°49' E 009°18'917.2
2017-Jul-24 03:30N 43°41' E 009°22'917.4
2017-Jul-24 03:00N 43°33' E 009°25'917.0
2017-Jul-24 02:30N 43°24' E 009°28'1016.6
2017-Jul-24 01:55N 43°15' E 009°32'716.3
2017-Jul-24 01:30N 43°09' E 009°35'916.7
2017-Jul-24 00:59N 43°01' E 009°39'816.3
2017-Jul-24 00:30N 42°53' E 009°43'816.7
2017-Jul-24 00:00N 42°47' E 009°51'1115.9
2017-Jul-23 23:18N 42°41' E 010°04'816.6
2017-Jul-23 22:48N 42°37' E 010°14'717.1
2017-Jul-23 22:25N 42°34' E 010°22'817.0
2017-Jul-23 21:58N 42°29' E 010°29'816.7
2017-Jul-23 21:30N 42°23' E 010°36'1937.2
2017-Jul-23 21:00N 42°06' E 010°48'994.9 260 / 41015.0 24.022.6
2017-Jul-23 20:54N 42°15' E 010°44'716.5
2017-Jul-23 20:30N 42°09' E 010°49'815.9
2017-Jul-23 20:00N 42°06' E 010°59'4842.3
2017-Jul-23 20:00N 42°06' E 010°54'1224.2 270 / 41015.0 24.022.6
2017-Jul-23 19:30N 42°06' E 011°10'816.7
2017-Jul-23 19:00N 42°05' E 011°21'6735.9
2017-Jul-23 19:00N 42°00' E 011°18'1322.1 360 / 81015.0 25.023.6
2017-Jul-23 18:24N 42°05' E 011°35'15 1.0
2017-Jul-23 03:05N 42°05' E 011°15'312.3
2017-Jul-23 02:50N 42°06' E 011°11'1412.3
2017-Jul-23 01:43N 42°07' E 010°52'312.0
2017-Jul-23 01:27N 42°09' E 010°49'612.0
2017-Jul-23 00:59N 42°14' E 010°45'612.1
2017-Jul-23 00:30N 42°19' E 010°40'612.2
2017-Jul-22 23:59N 42°24' E 010°35'612.0
2017-Jul-22 23:30N 42°28' E 010°30'612.0
2017-Jul-22 23:00N 42°32' E 010°23'611.9
2017-Jul-22 22:30N 42°35' E 010°16'812.8
2017-Jul-22 21:51N 42°40' E 010°08'413.0
2017-Jul-22 21:30N 42°43' E 010°03'612.5
2017-Jul-22 21:00N 42°49' E 010°01'2677.4
2017-Jul-22 21:00N 42°48' E 010°00'816.2 360 / 51015.0 25.023.6
2017-Jul-22 20:30N 42°56' E 010°02'713.1
2017-Jul-22 20:00N 43°02' E 010°03'3239.6
2017-Jul-22 20:00N 43°00' E 010°00'919.2 360 / 51015.0 25.023.6
2017-Jul-22 19:30N 43°09' E 010°05'715.0
2017-Jul-22 19:00N 43°16' E 010°07'4251.5
2017-Jul-22 19:00N 43°12' E 010°06'1225.5 360 / 51015.0 25.023.6
2017-Jul-22 18:30N 43°24' E 010°09'815.2
2017-Jul-22 18:00N 43°31' E 010°13'4 7.7
2017-Jul-22 17:30N 43°33' E 010°18'0 0.0
2017-Jul-22 16:53N 43°33' E 010°18'0 0.0
2017-Jul-22 16:29N 43°33' E 010°18'0 0.0
2017-Jul-22 15:59N 43°33' E 010°18'0 0.0
2017-Jul-22 15:29N 43°33' E 010°18'0 0.0
2017-Jul-22 14:59N 43°33' E 010°18'0 0.0
2017-Jul-22 13:59N 43°33' E 010°18'0 0.0
2017-Jul-22 13:23N 43°33' E 010°18'0 0.0
2017-Jul-22 12:59N 43°33' E 010°18'0 0.0
2017-Jul-22 12:11N 43°33' E 010°18'0 0.0
2017-Jul-22 11:59N 43°33' E 010°18'0 0.0
2017-Jul-22 11:29N 43°33' E 010°18'0 0.0
2017-Jul-22 10:41N 43°33' E 010°18'0 0.0
2017-Jul-22 10:29N 43°33' E 010°18'0 0.0
2017-Jul-22 09:59N 43°33' E 010°18'0 0.0
2017-Jul-22 09:29N 43°33' E 010°18'0 0.0
2017-Jul-22 08:53N 43°33' E 010°18'0 0.0
2017-Jul-22 08:29N 43°33' E 010°18'0 0.0
2017-Jul-22 07:59N 43°33' E 010°18'0 0.0
2017-Jul-22 07:29N 43°33' E 010°18'0 0.0
2017-Jul-22 06:56N 43°33' E 010°18'0 0.0
2017-Jul-22 06:26N 43°33' E 010°18'0 0.0
2017-Jul-22 05:56N 43°33' E 010°18'0 0.0
2017-Jul-22 05:24N 43°33' E 010°18'2 4.8
2017-Jul-22 05:00N 43°32' E 010°16'511.0
2017-Jul-22 04:30N 43°30' E 010°09'612.4
2017-Jul-22 04:00N 43°30' E 010°01'612.6
2017-Jul-22 03:30N 43°31' E 009°52'612.7
2017-Jul-22 03:00N 43°31' E 009°43'612.6
2017-Jul-22 02:30N 43°31' E 009°34'612.7
2017-Jul-22 02:00N 43°30' E 009°26'612.8
2017-Jul-22 01:30N 43°29' E 009°17'612.1
2017-Jul-22 01:00N 43°30' E 009°09'612.6
2017-Jul-22 00:30N 43°30' E 009°00'612.5
2017-Jul-22 00:00N 43°30' E 008°52'612.7
2017-Jul-21 23:30N 43°30' E 008°43'712.9
2017-Jul-21 23:00N 43°29' E 008°34'713.2
2017-Jul-21 22:28N 43°30' E 008°24'613.3
2017-Jul-21 22:00N 43°29' E 008°16'1616.4
2017-Jul-21 21:00N 43°24' E 007°54'1313.1 050 / 181011.0 23.020.1
2017-Jul-21 20:00N 43°24' E 007°36'427.5 040 / 181011.0 23.020.1
2017-Jul-21 19:51N 43°27' E 007°39'411.6
2017-Jul-21 19:28N 43°26' E 007°33'511.6
2017-Jul-21 19:00N 43°25' E 007°26'612.6
2017-Jul-21 18:30N 43°24' E 007°17'815.2
2017-Jul-21 18:00N 43°22' E 007°07'22 1.8
2017-Jul-21 05:25N 43°17' E 006°38'1 2.5
2017-Jul-21 05:00N 43°17' E 006°39'612.8
2017-Jul-21 04:31N 43°16' E 006°48'713.1
2017-Jul-21 04:00N 43°10' E 006°51'714.5
2017-Jul-21 03:30N 43°04' E 006°47'611.3
2017-Jul-21 03:00N 42°59' E 006°42'1911.5
2017-Jul-21 01:21N 42°52' E 006°18'512.0
2017-Jul-21 00:55N 42°52' E 006°11'512.3
2017-Jul-21 00:30N 42°53' E 006°04'712.3
2017-Jul-20 23:56N 42°55' E 005°54'512.2
2017-Jul-20 23:30N 42°56' E 005°48'612.4
2017-Jul-20 23:00N 42°58' E 005°39'612.4
2017-Jul-20 22:30N 42°60' E 005°31'713.0
2017-Jul-20 22:00N 43°05' E 005°25'613.1
2017-Jul-20 21:30N 43°10' E 005°20'713.1
2017-Jul-20 21:00N 43°15' E 005°14'612.1
2017-Jul-20 20:30N 43°21' E 005°18'2 2.3
2017-Jul-20 19:45N 43°21' E 005°20'0 0.0
2017-Jul-20 19:15N 43°21' E 005°20'0 0.0
2017-Jul-20 18:51N 43°21' E 005°20'0 0.0
2017-Jul-20 18:21N 43°21' E 005°20'0 0.0
2017-Jul-20 17:51N 43°21' E 005°20'0 0.0
2017-Jul-20 17:21N 43°21' E 005°20'0 0.0
2017-Jul-20 16:33N 43°21' E 005°20'0 0.0
2017-Jul-20 16:09N 43°21' E 005°20'0 0.0
2017-Jul-20 15:39N 43°21' E 005°20'3 0.3
2017-Jul-20 05:05N 43°20' E 005°16'112.1
2017-Jul-20 05:00N 43°19' E 005°15'511.0
2017-Jul-20 04:30N 43°15' E 005°10'612.2
2017-Jul-20 04:00N 43°09' E 005°09'612.3
2017-Jul-20 03:30N 43°03' E 005°07'612.3
2017-Jul-20 03:00N 42°57' E 005°06'712.5
2017-Jul-20 02:27N 42°50' E 005°05'612.5
2017-Jul-20 02:00N 42°44' E 005°04'612.5
2017-Jul-20 01:30N 42°38' E 005°02'612.5
2017-Jul-20 01:01N 42°32' E 005°01'815.7
2017-Jul-20 00:30N 42°24' E 004°59'816.9
2017-Jul-20 00:00N 42°16' E 004°57'816.7
2017-Jul-19 23:31N 42°08' E 004°55'816.4
2017-Jul-19 23:00N 41°60' E 004°53'816.6
2017-Jul-19 22:30N 41°51' E 004°51'816.8
2017-Jul-19 22:00N 41°43' E 004°49'816.7
2017-Jul-19 21:30N 41°35' E 004°47'816.7
2017-Jul-19 21:00N 41°27' E 004°45'3214.7
2017-Jul-19 21:00N 41°24' E 004°42'611.6 130 / 191014.0 23.021.6
2017-Jul-19 20:30N 41°18' E 004°43'816.9
2017-Jul-19 20:00N 41°10' E 004°41'5428.3
2017-Jul-19 20:00N 41°06' E 004°36'5 9.7 130 / 191015.0 23.021.6
2017-Jul-19 19:30N 41°02' E 004°39'917.0
2017-Jul-19 19:00N 40°53' E 004°37'817.0
2017-Jul-19 18:30N 40°45' E 004°35'816.8
2017-Jul-19 18:00N 40°37' E 004°33'916.6
2017-Jul-19 17:29N 40°28' E 004°31'1116.6
2017-Jul-19 16:51N 40°18' E 004°28'616.7
2017-Jul-19 16:30N 40°12' E 004°27'816.6
2017-Jul-19 16:00N 40°04' E 004°25'1016.4
2017-Jul-19 15:23N 39°54' E 004°23'4 9.1
2017-Jul-19 14:56N 39°53' E 004°18'1 0.2
2017-Jul-19 05:37N 39°53' E 004°16'0 0.3
2017-Jul-19 05:30N 39°53' E 004°16'3 6.0
2017-Jul-19 05:00N 39°52' E 004°19'511.0
2017-Jul-19 04:30N 39°57' E 004°22'612.9
2017-Jul-19 04:00N 40°02' E 004°18'714.0
2017-Jul-19 03:30N 40°07' E 004°11'713.8
2017-Jul-19 03:00N 40°11' E 004°04'713.5
2017-Jul-19 02:30N 40°15' E 003°57'713.3
2017-Jul-19 02:00N 40°19' E 003°50'713.4
2017-Jul-19 01:29N 40°23' E 003°43'913.5
2017-Jul-19 00:50N 40°28' E 003°33'413.6
2017-Jul-19 00:31N 40°31' E 003°29'713.5
2017-Jul-19 00:01N 40°35' E 003°22'713.5
2017-Jul-18 23:31N 40°39' E 003°14'713.6
2017-Jul-18 23:00N 40°43' E 003°07'713.4
2017-Jul-18 22:30N 40°47' E 003°00'713.3
2017-Jul-18 22:00N 40°51' E 002°53'713.4
2017-Jul-18 21:30N 40°55' E 002°46'713.4
2017-Jul-18 21:00N 40°59' E 002°39'6385.0
2017-Jul-18 21:00N 40°54' E 002°36'1019.9 190 / 61018.0 25.020.7
2017-Jul-18 20:30N 41°03' E 002°32'713.3
2017-Jul-18 20:00N 41°07' E 002°25'190.6
2017-Jul-18 20:00N 41°06' E 002°24'714.5 210 / 51018.0 25.022.2
2017-Jul-18 19:30N 41°11' E 002°17'613.3
2017-Jul-18 19:00N 41°15' E 002°11'510.7
2017-Jul-18 18:30N 41°21' E 002°10'1 0.5
2017-Jul-18 16:37N 41°22' E 002°11'0 0.0
2017-Jul-18 16:07N 41°22' E 002°11'0 0.0
2017-Jul-18 15:55N 41°22' E 002°11'0 0.0
2017-Jul-18 10:01N 41°22' E 002°11'0 0.0
2017-Jul-18 09:43N 41°22' E 002°11'0 0.0
2017-Jul-18 09:13N 41°22' E 002°11'0 0.0
2017-Jul-18 08:55N 41°22' E 002°11'0 0.0
2017-Jul-18 08:13N 41°22' E 002°11'0 0.0
2017-Jul-18 03:53N 41°22' E 002°11'0 0.9
2017-Jul-18 03:30N 41°21' E 002°11'4 7.3
2017-Jul-18 03:00N 41°18' E 002°11'4 6.8
2017-Jul-18 02:28N 41°16' E 002°15'4 8.7
2017-Jul-18 02:00N 41°18' E 002°20'5 8.4
2017-Jul-18 01:22N 41°20' E 002°27'6 8.4
2017-Jul-18 00:37N 41°24' E 002°34'2 8.1
2017-Jul-18 00:25N 41°25' E 002°35'3 8.0
2017-Jul-18 00:01N 41°26' E 002°39'4 8.2
2017-Jul-17 23:30N 41°28' E 002°44'4 8.3
2017-Jul-17 23:01N 41°30' E 002°49'8 8.1
2017-Jul-17 21:58N 41°35' E 002°59'3 7.6
2017-Jul-17 21:30N 41°37' E 003°02'4 8.1
2017-Jul-17 21:01N 41°41' E 003°03'5317.4
2017-Jul-17 21:00N 41°36' E 003°00'1019.5 170 / 121019.0 23.020.1
2017-Jul-17 20:30N 41°45' E 003°05'4 8.1
2017-Jul-17 20:00N 41°49' E 003°06'167.4
2017-Jul-17 20:00N 41°48' E 003°06'3 4.1 180 / 131019.0 23.020.1
2017-Jul-17 19:19N 41°51' E 003°07'3 8.7
2017-Jul-17 19:00N 41°48' E 003°06'334.2 200 / 151019.0 24.021.1
2017-Jul-17 18:55N 41°51' E 003°07'0 0.0
2017-Jul-17 17:49N 41°51' E 003°07'0 0.0
2017-Jul-17 17:25N 41°51' E 003°07'0 0.0
2017-Jul-17 16:55N 41°51' E 003°07'0 0.0
2017-Jul-17 16:25N 41°51' E 003°07'0 0.0
2017-Jul-17 15:55N 41°51' E 003°07'0 0.0
2017-Jul-17 15:13N 41°51' E 003°07'0 0.0
2017-Jul-17 14:01N 41°51' E 003°07'0 0.0
2017-Jul-17 13:55N 41°51' E 003°07'0 0.0
2017-Jul-17 13:19N 41°51' E 003°07'0 0.0
2017-Jul-17 12:55N 41°51' E 003°07'0 0.0
2017-Jul-17 12:01N 41°51' E 003°07'0 0.0
2017-Jul-17 11:49N 41°51' E 003°07'0 0.0
2017-Jul-17 10:31N 41°51' E 003°07'0 0.0
2017-Jul-17 10:01N 41°51' E 003°07'0 0.0
2017-Jul-17 09:37N 41°51' E 003°07'0 0.0
2017-Jul-17 09:13N 41°51' E 003°07'0 0.0
2017-Jul-17 08:49N 41°51' E 003°07'0 0.0
2017-Jul-17 07:37N 41°51' E 003°07'0 0.0
2017-Jul-17 07:19N 41°51' E 003°07'0 0.0
2017-Jul-17 06:55N 41°51' E 003°07'0 0.0
2017-Jul-17 06:25N 41°51' E 003°07'0 0.0
2017-Jul-17 05:55N 41°51' E 003°07'0 0.0
2017-Jul-17 05:25N 41°51' E 003°07'1 2.9
2017-Jul-17 05:00N 41°49' E 003°07'8 9.5
2017-Jul-17 04:08N 41°52' E 003°17'310.8
2017-Jul-17 03:49N 41°54' E 003°21'711.0
2017-Jul-17 03:10N 41°59' E 003°28'310.9
2017-Jul-17 02:54N 42°01' E 003°31'511.2
2017-Jul-17 02:27N 42°04' E 003°36'611.2
2017-Jul-17 01:57N 42°08' E 003°42'511.7
2017-Jul-17 01:30N 42°12' E 003°47'712.2
2017-Jul-17 00:57N 42°16' E 003°54'  
Track history (hours):
 
Tides and Currents Weather Stations Pressure Air Temp Water Temp Dewpoint Dewpoint Depression Visibility Wind Speed Wind Dir Waves Ship Positions

Seven Seas Voyager

Last reported at 2017-Jul-27 00:30 UTC. Time now 2017-Jul-27 00:35 UTC.
Position N 43°03' E 006°54'.

Length 205 m; draft 7 m.

Type: Ship. MMSI: 31151000.

Date/timePositionNaut miles runAvg speedWind from/ knotsBaromVisibWave heightAir tempDewpointWater temp
2017-Jul-27 00:30N 43°03' E 006°54'613.0
2017-Jul-27 00:00N 43°08' E 006°59'713.3
2017-Jul-26 23:30N 43°13' E 007°05'713.4
2017-Jul-26 23:00N 43°18' E 007°10'612.6
2017-Jul-26 22:30N 43°25' E 007°10'612.7
2017-Jul-26 22:00N 43°31' E 007°12'510.2
2017-Jul-26 21:30N 43°36' E 007°10'1 2.3
2017-Jul-26 21:00N 43°36' E 007°08'0 0.1
2017-Jul-26 20:30N 43°36' E 007°08'0 0.0
2017-Jul-26 20:00N 43°36' E 007°08'0 0.0
2017-Jul-26 19:24N 43°36' E 007°08'0 0.1
2017-Jul-26 19:00N 43°36' E 007°08'0 0.0
2017-Jul-26 18:00N 43°36' E 007°08'0 0.0
2017-Jul-26 16:24N 43°36' E 007°08'0 0.0
2017-Jul-26 15:54N 43°36' E 007°08'0 0.0
2017-Jul-26 15:30N 43°36' E 007°08'0 0.0
2017-Jul-26 15:00N 43°36' E 007°08'0 0.0
2017-Jul-26 14:00N 43°36' E 007°08'0 0.0
2017-Jul-26 13:30N 43°36' E 007°08'0 0.0
2017-Jul-26 13:00N 43°36' E 007°08'0 0.0
2017-Jul-26 12:30N 43°36' E 007°08'0 0.0
2017-Jul-26 12:00N 43°36' E 007°08'0 0.0
2017-Jul-26 11:30N 43°36' E 007°08'0 0.0
2017-Jul-26 10:42N 43°36' E 007°08'0 0.0
2017-Jul-26 10:30N 43°36' E 007°08'0 0.0
2017-Jul-26 08:30N 43°36' E 007°08'0 0.1
2017-Jul-26 08:00N 43°36' E 007°08'0 0.1
2017-Jul-26 04:15N 43°36' E 007°09'2 8.1
2017-Jul-26 04:00N 43°36' E 007°12'610.1
2017-Jul-26 03:26N 43°32' E 007°18'4 9.6
2017-Jul-26 03:00N 43°28' E 007°20'5 9.4
2017-Jul-26 02:30N 43°24' E 007°24'4 8.0
2017-Jul-26 02:00N 43°23' E 007°29'4 8.2
2017-Jul-26 01:30N 43°25' E 007°34'4 7.7
2017-Jul-26 01:00N 43°26' E 007°38'4 7.2
2017-Jul-26 00:30N 43°30' E 007°41'4 7.8
2017-Jul-26 00:00N 43°33' E 007°38'4 7.7
2017-Jul-25 23:30N 43°36' E 007°35'4 7.8
2017-Jul-25 23:00N 43°39' E 007°32'4 7.8
2017-Jul-25 22:29N 43°42' E 007°29'3 5.0
2017-Jul-25 21:57N 43°44' E 007°26'0 0.0
2017-Jul-25 21:27N 43°44' E 007°26'0 0.0
2017-Jul-25 20:57N 43°44' E 007°26'0 0.0
2017-Jul-25 20:27N 43°44' E 007°26'0 0.0
2017-Jul-25 19:39N 43°44' E 007°26'0 0.0
2017-Jul-25 19:27N 43°44' E 007°26'0 0.0
2017-Jul-25 18:57N 43°44' E 007°26'0 0.0
2017-Jul-25 18:27N 43°44' E 007°26'0 0.0
2017-Jul-25 17:51N 43°44' E 007°26'0 0.0
2017-Jul-25 17:27N 43°44' E 007°26'0 0.0
2017-Jul-25 16:57N 43°44' E 007°26'0 0.0
2017-Jul-25 16:03N 43°44' E 007°26'0 0.0
2017-Jul-25 15:57N 43°44' E 007°26'0 0.0
2017-Jul-25 15:15N 43°44' E 007°26'0 0.0
2017-Jul-25 14:57N 43°44' E 007°26'0 0.0
2017-Jul-25 13:57N 43°44' E 007°26'0 0.0
2017-Jul-25 13:27N 43°44' E 007°26'0 0.0
2017-Jul-25 12:57N 43°44' E 007°26'0 0.0
2017-Jul-25 12:27N 43°44' E 007°26'0 0.0
2017-Jul-25 11:57N 43°44' E 007°26'0 0.0
2017-Jul-25 10:45N 43°44' E 007°26'0 0.0
2017-Jul-25 10:27N 43°44' E 007°26'0 0.0
2017-Jul-25 09:57N 43°44' E 007°26'0 0.0
2017-Jul-25 07:45N 43°44' E 007°26'0 0.0
2017-Jul-25 07:27N 43°44' E 007°26'0 0.0
2017-Jul-24 21:54N 43°44' E 007°26'1 2.4
2017-Jul-24 21:30N 43°44' E 007°27'714.1
2017-Jul-24 21:00N 43°44' E 007°37'715.2
2017-Jul-24 20:31N 43°44' E 007°47'816.5
2017-Jul-24 20:01N 43°44' E 007°59'917.4
2017-Jul-24 19:30N 43°45' E 008°11'917.3
2017-Jul-24 19:01N 43°48' E 008°22'816.6
2017-Jul-24 18:31N 43°52' E 008°32'816.3
2017-Jul-24 18:01N 43°57' E 008°41'816.2
2017-Jul-24 17:31N 44°02' E 008°50'816.6
2017-Jul-24 17:01N 44°07' E 008°59'816.8
2017-Jul-24 16:30N 44°12' E 009°09'714.7
2017-Jul-24 16:00N 44°18' E 009°15'1 0.5
2017-Jul-24 12:59N 44°19' E 009°14'0 0.0
2017-Jul-24 12:29N 44°19' E 009°14'0 0.0
2017-Jul-24 11:59N 44°19' E 009°14'0 0.0
2017-Jul-24 11:29N 44°19' E 009°14'0 0.0
2017-Jul-24 10:59N 44°19' E 009°14'0 0.0
2017-Jul-24 10:29N 44°19' E 009°14'0 0.0
2017-Jul-24 09:59N 44°19' E 009°14'0 0.0
2017-Jul-24 09:29N 44°19' E 009°14'0 0.0
2017-Jul-24 08:59N 44°19' E 009°14'0 0.0
2017-Jul-24 08:23N 44°19' E 009°14'0 0.0
2017-Jul-24 07:35N 44°19' E 009°14'0 0.0
2017-Jul-24 07:23N 44°19' E 009°14'0 0.0
2017-Jul-24 06:53N 44°19' E 009°14'0 0.1
2017-Jul-24 06:29N 44°19' E 009°14'1 1.4
2017-Jul-24 06:00N 44°18' E 009°14'611.8
2017-Jul-24 05:30N 44°12' E 009°15'714.5
2017-Jul-24 05:00N 44°05' E 009°13'815.8
2017-Jul-24 04:30N 43°57' E 009°15'816.9
2017-Jul-24 04:00N 43°49' E 009°18'917.2
2017-Jul-24 03:30N 43°41' E 009°22'917.4
2017-Jul-24 03:00N 43°33' E 009°25'917.0
2017-Jul-24 02:30N 43°24' E 009°28'1016.6
2017-Jul-24 01:55N 43°15' E 009°32'716.3
2017-Jul-24 01:30N 43°09' E 009°35'916.7
2017-Jul-24 00:59N 43°01' E 009°39'816.3
2017-Jul-24 00:30N 42°53' E 009°43'816.7
2017-Jul-24 00:00N 42°47' E 009°51'1115.9
2017-Jul-23 23:18N 42°41' E 010°04'816.6
2017-Jul-23 22:48N 42°37' E 010°14'717.1
2017-Jul-23 22:25N 42°34' E 010°22'817.0
2017-Jul-23 21:58N 42°29' E 010°29'816.7
2017-Jul-23 21:30N 42°23' E 010°36'1937.2
2017-Jul-23 21:00N 42°06' E 010°48'994.9 260 / 41015.0 24.022.6
2017-Jul-23 20:54N 42°15' E 010°44'716.5
2017-Jul-23 20:30N 42°09' E 010°49'815.9
2017-Jul-23 20:00N 42°06' E 010°59'4842.3
2017-Jul-23 20:00N 42°06' E 010°54'1224.2 270 / 41015.0 24.022.6
2017-Jul-23 19:30N 42°06' E 011°10'816.7
2017-Jul-23 19:00N 42°05' E 011°21'6735.9
2017-Jul-23 19:00N 42°00' E 011°18'1322.1 360 / 81015.0 25.023.6
2017-Jul-23 18:24N 42°05' E 011°35'15 1.0
2017-Jul-23 03:05N 42°05' E 011°15'312.3
2017-Jul-23 02:50N 42°06' E 011°11'1412.3
2017-Jul-23 01:43N 42°07' E 010°52'312.0
2017-Jul-23 01:27N 42°09' E 010°49'612.0
2017-Jul-23 00:59N 42°14' E 010°45'612.1
2017-Jul-23 00:30N 42°19' E 010°40'612.2
2017-Jul-22 23:59N 42°24' E 010°35'612.0
2017-Jul-22 23:30N 42°28' E 010°30'612.0
2017-Jul-22 23:00N 42°32' E 010°23'611.9
2017-Jul-22 22:30N 42°35' E 010°16'812.8
2017-Jul-22 21:51N 42°40' E 010°08'413.0
2017-Jul-22 21:30N 42°43' E 010°03'612.5
2017-Jul-22 21:00N 42°49' E 010°01'2677.4
2017-Jul-22 21:00N 42°48' E 010°00'816.2 360 / 51015.0 25.023.6
2017-Jul-22 20:30N 42°56' E 010°02'713.1
2017-Jul-22 20:00N 43°02' E 010°03'3239.6
2017-Jul-22 20:00N 43°00' E 010°00'919.2 360 / 51015.0 25.023.6
2017-Jul-22 19:30N 43°09' E 010°05'715.0
2017-Jul-22 19:00N 43°16' E 010°07'4251.5
2017-Jul-22 19:00N 43°12' E 010°06'1225.5 360 / 51015.0 25.023.6
2017-Jul-22 18:30N 43°24' E 010°09'815.2
2017-Jul-22 18:00N 43°31' E 010°13'4 7.7
2017-Jul-22 17:30N 43°33' E 010°18'0 0.0
2017-Jul-22 16:53N 43°33' E 010°18'0 0.0
2017-Jul-22 16:29N 43°33' E 010°18'0 0.0
2017-Jul-22 15:59N 43°33' E 010°18'0 0.0
2017-Jul-22 15:29N 43°33' E 010°18'0 0.0
2017-Jul-22 14:59N 43°33' E 010°18'0 0.0
2017-Jul-22 13:59N 43°33' E 010°18'0 0.0
2017-Jul-22 13:23N 43°33' E 010°18'0 0.0
2017-Jul-22 12:59N 43°33' E 010°18'0 0.0
2017-Jul-22 12:11N 43°33' E 010°18'0 0.0
2017-Jul-22 11:59N 43°33' E 010°18'0 0.0
2017-Jul-22 11:29N 43°33' E 010°18'0 0.0
2017-Jul-22 10:41N 43°33' E 010°18'0 0.0
2017-Jul-22 10:29N 43°33' E 010°18'0 0.0
2017-Jul-22 09:59N 43°33' E 010°18'0 0.0
2017-Jul-22 09:29N 43°33' E 010°18'0 0.0
2017-Jul-22 08:53N 43°33' E 010°18'0 0.0
2017-Jul-22 08:29N 43°33' E 010°18'0 0.0
2017-Jul-22 07:59N 43°33' E 010°18'0 0.0
2017-Jul-22 07:29N 43°33' E 010°18'0 0.0
2017-Jul-22 06:56N 43°33' E 010°18'0 0.0
2017-Jul-22 06:26N 43°33' E 010°18'0 0.0
2017-Jul-22 05:56N 43°33' E 010°18'0 0.0
2017-Jul-22 05:24N 43°33' E 010°18'2 4.8
2017-Jul-22 05:00N 43°32' E 010°16'511.0
2017-Jul-22 04:30N 43°30' E 010°09'612.4
2017-Jul-22 04:00N 43°30' E 010°01'612.6
2017-Jul-22 03:30N 43°31' E 009°52'612.7
2017-Jul-22 03:00N 43°31' E 009°43'612.6
2017-Jul-22 02:30N 43°31' E 009°34'612.7
2017-Jul-22 02:00N 43°30' E 009°26'612.8
2017-Jul-22 01:30N 43°29' E 009°17'612.1
2017-Jul-22 01:00N 43°30' E 009°09'612.6
2017-Jul-22 00:30N 43°30' E 009°00'612.5
2017-Jul-22 00:00N 43°30' E 008°52'612.7
2017-Jul-21 23:30N 43°30' E 008°43'712.9
2017-Jul-21 23:00N 43°29' E 008°34'713.2
2017-Jul-21 22:28N 43°30' E 008°24'613.3
2017-Jul-21 22:00N 43°29' E 008°16'1616.4
2017-Jul-21 21:00N 43°24' E 007°54'1313.1 050 / 181011.0 23.020.1
2017-Jul-21 20:00N 43°24' E 007°36'427.5 040 / 181011.0 23.020.1
2017-Jul-21 19:51N 43°27' E 007°39'411.6
2017-Jul-21 19:28N 43°26' E 007°33'511.6
2017-Jul-21 19:00N 43°25' E 007°26'612.6
2017-Jul-21 18:30N 43°24' E 007°17'815.2
2017-Jul-21 18:00N 43°22' E 007°07'22 1.8
2017-Jul-21 05:25N 43°17' E 006°38'1 2.5
2017-Jul-21 05:00N 43°17' E 006°39'612.8
2017-Jul-21 04:31N 43°16' E 006°48'713.1
2017-Jul-21 04:00N 43°10' E 006°51'714.5
2017-Jul-21 03:30N 43°04' E 006°47'611.3
2017-Jul-21 03:00N 42°59' E 006°42'1911.5
2017-Jul-21 01:21N 42°52' E 006°18'512.0
2017-Jul-21 00:55N 42°52' E 006°11'512.3
2017-Jul-21 00:30N 42°53' E 006°04'712.3
2017-Jul-20 23:56N 42°55' E 005°54'512.2
2017-Jul-20 23:30N 42°56' E 005°48'612.4
2017-Jul-20 23:00N 42°58' E 005°39'612.4
2017-Jul-20 22:30N 42°60' E 005°31'713.0
2017-Jul-20 22:00N 43°05' E 005°25'613.1
2017-Jul-20 21:30N 43°10' E 005°20'713.1
2017-Jul-20 21:00N 43°15' E 005°14'612.1
2017-Jul-20 20:30N 43°21' E 005°18'2 2.3
2017-Jul-20 19:45N 43°21' E 005°20'0 0.0
2017-Jul-20 19:15N 43°21' E 005°20'0 0.0
2017-Jul-20 18:51N 43°21' E 005°20'0 0.0
2017-Jul-20 18:21N 43°21' E 005°20'0 0.0
2017-Jul-20 17:51N 43°21' E 005°20'0 0.0
2017-Jul-20 17:21N 43°21' E 005°20'0 0.0
2017-Jul-20 16:33N 43°21' E 005°20'0 0.0
2017-Jul-20 16:09N 43°21' E 005°20'0 0.0
2017-Jul-20 15:39N 43°21' E 005°20'3 0.3
2017-Jul-20 05:05N 43°20' E 005°16'112.1
2017-Jul-20 05:00N 43°19' E 005°15'511.0
2017-Jul-20 04:30N 43°15' E 005°10'612.2
2017-Jul-20 04:00N 43°09' E 005°09'612.3
2017-Jul-20 03:30N 43°03' E 005°07'612.3
2017-Jul-20 03:00N 42°57' E 005°06'712.5
2017-Jul-20 02:27N 42°50' E 005°05'612.5
2017-Jul-20 02:00N 42°44' E 005°04'612.5
2017-Jul-20 01:30N 42°38' E 005°02'612.5
2017-Jul-20 01:01N 42°32' E 005°01'815.7
2017-Jul-20 00:30N 42°24' E 004°59'816.9
2017-Jul-20 00:00N 42°16' E 004°57'816.7
2017-Jul-19 23:31N 42°08' E 004°55'816.4
2017-Jul-19 23:00N 41°60' E 004°53'816.6
2017-Jul-19 22:30N 41°51' E 004°51'816.8
2017-Jul-19 22:00N 41°43' E 004°49'816.7
2017-Jul-19 21:30N 41°35' E 004°47'816.7
2017-Jul-19 21:00N 41°27' E 004°45'3214.7
2017-Jul-19 21:00N 41°24' E 004°42'611.6 130 / 191014.0 23.021.6
2017-Jul-19 20:30N 41°18' E 004°43'816.9
2017-Jul-19 20:00N 41°10' E 004°41'5428.3
2017-Jul-19 20:00N 41°06' E 004°36'5 9.7 130 / 191015.0 23.021.6
2017-Jul-19 19:30N 41°02' E 004°39'917.0
2017-Jul-19 19:00N 40°53' E 004°37'817.0
2017-Jul-19 18:30N 40°45' E 004°35'816.8
2017-Jul-19 18:00N 40°37' E 004°33'916.6
2017-Jul-19 17:29N 40°28' E 004°31'1116.6
2017-Jul-19 16:51N 40°18' E 004°28'616.7
2017-Jul-19 16:30N 40°12' E 004°27'816.6
2017-Jul-19 16:00N 40°04' E 004°25'1016.4
2017-Jul-19 15:23N 39°54' E 004°23'4 9.1
2017-Jul-19 14:56N 39°53' E 004°18'1 0.2
2017-Jul-19 05:37N 39°53' E 004°16'0 0.3
2017-Jul-19 05:30N 39°53' E 004°16'3 6.0
2017-Jul-19 05:00N 39°52' E 004°19'511.0
2017-Jul-19 04:30N 39°57' E 004°22'612.9
2017-Jul-19 04:00N 40°02' E 004°18'714.0
2017-Jul-19 03:30N 40°07' E 004°11'713.8
2017-Jul-19 03:00N 40°11' E 004°04'713.5
2017-Jul-19 02:30N 40°15' E 003°57'713.3
2017-Jul-19 02:00N 40°19' E 003°50'713.4
2017-Jul-19 01:29N 40°23' E 003°43'913.5
2017-Jul-19 00:50N 40°28' E 003°33'413.6
2017-Jul-19 00:31N 40°31' E 003°29'713.5
2017-Jul-19 00:01N 40°35' E 003°22'713.5
2017-Jul-18 23:31N 40°39' E 003°14'713.6
2017-Jul-18 23:00N 40°43' E 003°07'713.4
2017-Jul-18 22:30N 40°47' E 003°00'713.3
2017-Jul-18 22:00N 40°51' E 002°53'713.4
2017-Jul-18 21:30N 40°55' E 002°46'713.4
2017-Jul-18 21:00N 40°59' E 002°39'6385.0
2017-Jul-18 21:00N 40°54' E 002°36'1019.9 190 / 61018.0 25.020.7
2017-Jul-18 20:30N 41°03' E 002°32'713.3
2017-Jul-18 20:00N 41°07' E 002°25'190.6
2017-Jul-18 20:00N 41°06' E 002°24'714.5 210 / 51018.0 25.022.2
2017-Jul-18 19:30N 41°11' E 002°17'613.3
2017-Jul-18 19:00N 41°15' E 002°11'510.7
2017-Jul-18 18:30N 41°21' E 002°10'1 0.5
2017-Jul-18 16:37N 41°22' E 002°11'0 0.0
2017-Jul-18 16:07N 41°22' E 002°11'0 0.0
2017-Jul-18 15:55N 41°22' E 002°11'0 0.0
2017-Jul-18 10:01N 41°22' E 002°11'0 0.0
2017-Jul-18 09:43N 41°22' E 002°11'0 0.0
2017-Jul-18 09:13N 41°22' E 002°11'0 0.0
2017-Jul-18 08:55N 41°22' E 002°11'0 0.0
2017-Jul-18 08:13N 41°22' E 002°11'0 0.0
2017-Jul-18 03:53N 41°22' E 002°11'0 0.9
2017-Jul-18 03:30N 41°21' E 002°11'4 7.3
2017-Jul-18 03:00N 41°18' E 002°11'4 6.8
2017-Jul-18 02:28N 41°16' E 002°15'4 8.7
2017-Jul-18 02:00N 41°18' E 002°20'5 8.4
2017-Jul-18 01:22N 41°20' E 002°27'6 8.4
2017-Jul-18 00:37N 41°24' E 002°34'2 8.1
2017-Jul-18 00:25N 41°25' E 002°35'3 8.0
2017-Jul-18 00:01N 41°26' E 002°39'4 8.2
2017-Jul-17 23:30N 41°28' E 002°44'4 8.3
2017-Jul-17 23:01N 41°30' E 002°49'8 8.1
2017-Jul-17 21:58N 41°35' E 002°59'3 7.6
2017-Jul-17 21:30N 41°37' E 003°02'4 8.1
2017-Jul-17 21:01N 41°41' E 003°03'5317.4
2017-Jul-17 21:00N 41°36' E 003°00'1019.5 170 / 121019.0 23.020.1
2017-Jul-17 20:30N 41°45' E 003°05'4 8.1
2017-Jul-17 20:00N 41°49' E 003°06'167.4
2017-Jul-17 20:00N 41°48' E 003°06'3 4.1 180 / 131019.0 23.020.1
2017-Jul-17 19:19N 41°51' E 003°07'3 8.7
2017-Jul-17 19:00N 41°48' E 003°06'334.2 200 / 151019.0 24.021.1
2017-Jul-17 18:55N 41°51' E 003°07'0 0.0
2017-Jul-17 17:49N 41°51' E 003°07'0 0.0
2017-Jul-17 17:25N 41°51' E 003°07'0 0.0
2017-Jul-17 16:55N 41°51' E 003°07'0 0.0
2017-Jul-17 16:25N 41°51' E 003°07'0 0.0
2017-Jul-17 15:55N 41°51' E 003°07'0 0.0
2017-Jul-17 15:13N 41°51' E 003°07'0 0.0
2017-Jul-17 14:01N 41°51' E 003°07'0 0.0
2017-Jul-17 13:55N 41°51' E 003°07'0 0.0
2017-Jul-17 13:19N 41°51' E 003°07'0 0.0
2017-Jul-17 12:55N 41°51' E 003°07'0 0.0
2017-Jul-17 12:01N 41°51' E 003°07'0 0.0
2017-Jul-17 11:49N 41°51' E 003°07'0 0.0
2017-Jul-17 10:31N 41°51' E 003°07'0 0.0
2017-Jul-17 10:01N 41°51' E 003°07'0 0.0
2017-Jul-17 09:37N 41°51' E 003°07'0 0.0
2017-Jul-17 09:13N 41°51' E 003°07'0 0.0
2017-Jul-17 08:49N 41°51' E 003°07'0 0.0
2017-Jul-17 07:37N 41°51' E 003°07'0 0.0
2017-Jul-17 07:19N 41°51' E 003°07'0 0.0
2017-Jul-17 06:55N 41°51' E 003°07'0 0.0
2017-Jul-17 06:25N 41°51' E 003°07'0 0.0
2017-Jul-17 05:55N 41°51' E 003°07'0 0.0
2017-Jul-17 05:25N 41°51' E 003°07'1 2.9
2017-Jul-17 05:00N 41°49' E 003°07'8 9.5
2017-Jul-17 04:08N 41°52' E 003°17'310.8
2017-Jul-17 03:49N 41°54' E 003°21'711.0
2017-Jul-17 03:10N 41°59' E 003°28'310.9
2017-Jul-17 02:54N 42°01' E 003°31'511.2
2017-Jul-17 02:27N 42°04' E 003°36'611.2
2017-Jul-17 01:57N 42°08' E 003°42'511.7
2017-Jul-17 01:30N 42°12' E 003°47'712.2
2017-Jul-17 00:57N 42°16' E 003°54'  

Dump ship's entire track history